Time;durP1;ratioP1;P1;durP2;ratioP2;P2;SDS_P1;SDS_P2;PMS_P1;PMS_P2;Temp;Humidity;BMP_temperature;BMP_pressure;BME280_temperature;BME280_humidity;BME280_pressure;Samples;Min_cycle;Max_cycle;Signal;HPM_P1;HPM_P2
2022/01/02 00:03:41;;;;;;;;;;;;;;;;;;;;;
2022/01/02 00:10:16;;;;;;;;;;;;;;;;;;;;;
2022/01/02 00:38:09;;;;;;;51.70;23.20;;;;;;;8.31;100.00;99444.56;212125;1323;25476;-76
2022/01/02 00:52:09;;;;;;;64.80;29.80;;;;;;;8.24;100.00;99428.71;212437;1323;22748;-75
2022/01/02 01:19:35;;;;;;;97.60;42.50;;;;;;;8.27;100.00;99417.20;212204;1323;22754;-76
2022/01/02 01:46:57;;;;;;;154.80;63.80;;;;;;;8.24;100.00;99394.93;212417;1323;22614;-75
2022/01/02 02:00:33;;;;;;;195.20;78.40;;;;;;;8.43;100.00;99366.80;212106;1323;24263;-75
2022/01/02 02:07:47;;;;;;;205.80;81.30;;;;;;;8.46;100.00;99354.98;211957;1326;23286;-76
2022/01/02 02:14:39;;;;;;;;;;;;;;;;;;;;;
2022/01/02 03:10:16;;;;;;;82.30;24.30;;;;;;;8.05;100.00;99305.94;211946;1326;22703;-76
2022/01/02 03:16:58;;;;;;;72.60;25.00;;;;;;;8.04;100.00;99291.48;212455;1323;22634;-75
2022/01/02 03:44:45;;;;;;;58.30;19.80;;;;;;;8.07;100.00;99250.29;212326;1326;22988;-76
2022/01/02 03:58:17;;;;;;;53.80;19.40;;;;;;;8.07;100.00;99249.81;212188;1324;22662;-76
2022/01/02 04:04:39;;;;;;;;;;;;;;;;;;;;;
2022/01/02 04:31:33;;;;;;;45.50;14.90;;;;;;;8.07;100.00;99211.61;212555;1323;25249;-76
2022/01/02 04:38:42;;;;;;;;;;;;;;;;;;;;;
2022/01/02 04:51:53;;;;;;;52.60;18.40;;;;;;;7.75;100.00;99173.70;212381;1326;22635;-77
2022/01/02 05:31:52;;;;;;;49.50;16.90;;;;;;;7.00;100.00;99104.92;212564;1323;22691;-75
2022/01/02 05:37:07;;;;;;;36.30;12.70;;;;;;;6.91;100.00;99100.19;212453;1324;22637;-76
2022/01/02 05:42:43;;;;;;;;;;;;;;;;;;;;;
2022/01/02 05:47:50;;;;;;;38.90;13.70;;;;;;;6.74;100.00;99079.34;212746;1324;25866;-76
2022/01/02 05:58:12;;;;;;;41.60;13.90;;;;;;;6.57;100.00;99057.19;212385;1323;25366;-76
2022/01/02 06:03:15;;;;;;;32.50;12.20;;;;;;;6.51;100.00;99044.63;212589;1326;22686;-76
2022/01/02 06:08:44;;;;;;;31.30;12.80;;;;;;;6.43;100.00;99039.34;212337;1323;22608;-76
2022/01/02 06:13:46;;;;;;;29.40;11.90;;;;;;;6.39;100.00;99028.02;212337;1324;25412;-77
2022/01/02 06:19:02;;;;;;;;;;;;;;;;;;;;;
2022/01/02 06:24:30;;;;;;;42.50;14.50;;;;;;;6.29;100.00;98994.59;212623;1323;25444;-76
2022/01/02 06:29:44;;;;;;;37.00;11.60;;;;;;;6.26;100.00;98983.38;212538;1326;22674;-76
2022/01/02 06:34:55;;;;;;;51.10;15.30;;;;;;;6.24;100.00;98974.86;212452;1324;23589;-77
2022/01/02 06:40:45;;;;;;;46.20;15.40;;;;;;;6.24;100.00;98964.02;212551;1323;22607;-75
2022/01/02 06:46:14;;;;;;;44.50;13.90;;;;;;;6.23;100.00;98969.65;212428;1323;22825;-77
2022/01/02 06:51:16;;;;;;;42.20;15.20;;;;;;;6.24;100.00;98964.91;212679;1323;22605;-76
2022/01/02 06:56:42;;;;;;;47.80;13.50;;;;;;;6.28;100.00;98953.94;212638;1323;26430;-76
2022/01/02 07:01:58;;;;;;;43.30;14.50;;;;;;;6.31;100.00;98943.36;212573;1323;22624;-76
2022/01/02 07:07:29;;;;;;;41.90;13.80;;;;;;;6.37;100.00;98952.34;212394;1326;22594;-77
2022/01/02 07:12:36;;;;;;;31.60;12.60;;;;;;;6.40;100.00;98951.93;212589;1324;22604;-76
2022/01/02 07:18:12;;;;;;;28.20;10.10;;;;;;;6.44;100.00;98948.88;212454;1323;22600;-77
2022/01/02 07:23:33;;;;;;;30.70;10.80;;;;;;;6.45;100.00;98936.52;212845;1323;23078;-76
2022/01/02 07:28:54;;;;;;;23.50;9.70;;;;;;;6.48;100.00;98921.33;212759;1323;22645;-76
2022/01/02 07:34:49;;;;;;;;;;;;;;;;;;;;;
2022/01/02 07:39:55;;;;;;;39.90;13.00;;;;;;;6.58;100.00;98905.67;212142;1323;121703;-76
2022/01/02 07:45:01;;;;;;;33.50;11.20;;;;;;;6.62;100.00;98907.19;212339;1324;25584;-76
2022/01/02 07:50:41;;;;;;;;;;;;;;;;;;;;;
2022/01/02 07:56:16;;;;;;;26.00;11.10;;;;;;;6.63;100.00;98906.66;212513;1323;22606;-77
2022/01/02 08:02:05;;;;;;;26.80;9.90;;;;;;;6.64;100.00;98895.33;212476;1324;22845;-76
2022/01/02 08:07:42;;;;;;;29.80;11.00;;;;;;;6.67;100.00;98883.40;214618;1302;545634;-76
2022/01/02 08:13:04;;;;;;;22.10;9.80;;;;;;;6.65;100.00;98878.71;217601;1287;23114;-76
2022/01/02 08:18:06;;;;;;;29.20;10.70;;;;;;;6.67;100.00;98876.55;217482;1285;288523;-75
2022/01/02 08:23:09;;;;;;;24.10;10.10;;;;;;;6.70;100.00;98867.98;218399;1284;25340;-74
2022/01/02 08:28:15;;;;;;;22.50;10.30;;;;;;;6.75;100.00;98867.15;218111;1285;22775;-76
2022/01/02 08:33:21;;;;;;;25.10;10.60;;;;;;;6.88;100.00;98875.51;218377;1283;22582;-76
2022/01/02 08:38:23;;;;;;;24.30;10.00;;;;;;;7.01;100.00;98869.69;218137;1285;22890;-74
2022/01/02 08:43:40;;;;;;;24.50;9.10;;;;;;;7.13;100.00;98854.32;219636;1277;22594;-75
2022/01/02 08:48:42;;;;;;;16.60;8.10;;;;;;;7.26;100.00;98851.58;219608;1277;22568;-76
2022/01/02 08:53:45;;;;;;;20.00;7.30;;;;;;;7.39;100.00;98845.56;219480;1279;22623;-76
2022/01/02 08:59:00;;;;;;;19.80;7.20;;;;;;;7.54;100.00;98844.61;219700;1277;24322;-76
2022/01/02 09:04:30;;;;;;;13.90;6.30;;;;;;;7.65;99.96;98838.42;219537;1277;22618;-76
2022/01/02 09:09:55;;;;;;;10.70;5.80;;;;;;;7.74;99.06;98842.79;219668;1279;22722;-76
2022/01/02 09:15:09;;;;;;;12.90;5.60;;;;;;;7.83;97.82;98838.10;219645;1278;22589;-75
2022/01/02 09:20:15;;;;;;;13.80;6.00;;;;;;;7.95;97.55;98833.27;219573;1279;22580;-76
2022/01/02 09:25:38;;;;;;;14.50;5.40;;;;;;;8.01;96.28;98834.13;219686;1279;23354;-75
2022/01/02 09:30:54;;;;;;;8.40;4.10;;;;;;;8.07;95.15;98844.73;219647;1279;24834;-76
2022/01/02 09:36:06;;;;;;;10.10;4.60;;;;;;;8.15;94.64;98840.71;219803;1278;23760;-76
2022/01/02 09:41:56;;;;;;;11.20;4.10;;;;;;;8.31;95.03;98843.35;219868;1278;25821;-75
2022/01/02 09:48:15;;;;;;;7.30;3.90;;;;;;;8.52;94.41;98826.91;219875;1276;22582;-75
2022/01/02 09:53:43;;;;;;;9.70;4.00;;;;;;;8.74;93.83;98819.16;219837;1279;22588;-76
2022/01/02 09:58:46;;;;;;;7.70;3.70;;;;;;;8.91;93.42;98813.64;219913;1277;22719;-74
2022/01/02 10:04:00;;;;;;;6.50;2.80;;;;;;;9.04;92.21;98807.32;219873;1278;22663;-75
2022/01/02 10:09:48;;;;;;;6.10;2.60;;;;;;;9.16;90.12;98794.08;219949;1277;24285;-76
2022/01/02 10:15:36;;;;;;;6.60;2.50;;;;;;;9.27;88.65;98804.27;219746;1278;25276;-76
2022/01/02 10:20:47;;;;;;;8.20;3.50;;;;;;;9.36;87.94;98809.77;219838;1278;22651;-76
2022/01/02 10:26:23;;;;;;;6.20;3.00;;;;;;;9.45;87.37;98804.23;219808;1278;22560;-76
2022/01/02 10:31:38;;;;;;;5.20;2.90;;;;;;;9.51;87.10;98790.81;219790;1278;22485;-76
2022/01/02 10:36:56;;;;;;;8.00;3.40;;;;;;;9.54;87.21;98769.40;220198;1276;22574;-76
2022/01/02 10:42:30;;;;;;;4.50;3.00;;;;;;;9.57;88.15;98759.32;219911;1278;22804;-75
2022/01/02 10:53:39;;;;;;;6.00;3.20;;;;;;;9.68;87.36;98738.45;219876;1277;24258;-77
2022/01/02 10:58:47;;;;;;;6.20;2.90;;;;;;;9.74;86.02;98730.75;220238;1277;22756;-77
2022/01/02 11:04:02;;;;;;;5.80;3.30;;;;;;;9.81;86.06;98729.28;219981;1276;22575;-76
2022/01/02 11:09:46;;;;;;;5.20;2.90;;;;;;;9.87;84.48;98728.26;219960;1278;22560;-76
2022/01/02 11:15:33;;;;;;;6.90;3.00;;;;;;;9.92;84.25;98719.15;220037;1278;23966;-77
2022/01/02 11:20:42;;;;;;;4.70;3.00;;;;;;;9.99;84.85;98714.64;220020;1278;22582;-77
2022/01/02 11:25:51;;;;;;;4.60;2.90;;;;;;;10.08;84.13;98713.30;220125;1277;22647;-76
2022/01/02 11:31:48;;;;;;;5.10;3.10;;;;;;;10.19;85.00;98706.00;219881;1278;23218;-77
2022/01/02 11:37:42;;;;;;;6.20;2.90;;;;;;;10.31;83.75;98700.92;219818;1276;25425;-76
2022/01/02 11:43:12;;;;;;;5.40;2.50;;;;;;;10.43;83.00;98689.70;219779;1278;22623;-76
2022/01/02 11:48:33;;;;;;;3.80;2.30;;;;;;;10.48;82.96;98686.54;219873;1279;22515;-75
2022/01/02 11:53:54;;;;;;;2.80;1.70;;;;;;;10.50;80.52;98683.39;219791;1278;25330;-77
2022/01/02 11:59:04;;;;;;;5.60;2.20;;;;;;;10.47;80.51;98683.70;219737;1278;23283;-75
2022/01/02 12:04:14;;;;;;;3.80;2.20;;;;;;;10.42;80.24;98678.28;219812;1276;22652;-77
2022/01/02 12:10:26;;;;;;;4.00;2.40;;;;;;;10.39;80.46;98666.50;219916;1275;22685;-77
2022/01/02 12:15:42;;;;;;;3.20;2.00;;;;;;;10.34;79.51;98660.04;219978;1274;24248;-75
2022/01/02 12:21:14;;;;;;;7.70;3.10;;;;;;;10.30;79.99;98662.05;220049;1275;22570;-75
2022/01/02 12:26:49;;;;;;;6.40;2.80;;;;;;;10.23;79.37;98651.38;220001;1274;22605;-77
2022/01/02 12:32:15;;;;;;;6.40;2.90;;;;;;;10.18;79.85;98641.49;220000;1274;22613;-77
2022/01/02 12:37:28;;;;;;;5.70;2.50;;;;;;;10.14;80.25;98631.42;219982;1275;22579;-77
2022/01/02 12:42:40;;;;;;;3.60;2.30;;;;;;;10.10;80.29;98632.06;220027;1275;23824;-75
2022/01/02 12:48:29;;;;;;;6.50;3.20;;;;;;;10.08;80.04;98636.70;220022;1274;24291;-77
2022/01/02 12:53:51;;;;;;;;;;;;;;;;;;;;;
2022/01/02 12:59:59;;;;;;;5.50;2.60;;;;;;;9.97;79.45;98625.39;220107;1274;22623;-76
2022/01/02 13:05:25;;;;;;;4.10;2.60;;;;;;;9.92;79.93;98630.70;219264;1280;22596;-76
2022/01/02 13:10:58;;;;;;;6.20;2.70;;;;;;;9.88;80.04;98634.00;220188;1274;22733;-77
2022/01/02 13:16:09;;;;;;;8.20;4.40;;;;;;;9.86;80.25;98629.33;220221;1274;23236;-77
2022/01/02 13:21:14;;;;;;;8.30;4.60;;;;;;;9.80;80.40;98621.11;220073;1274;25437;-77
2022/01/02 13:26:56;;;;;;;10.00;5.30;;;;;;;9.75;80.31;98621.48;220151;1275;22575;-75
2022/01/02 13:32:38;;;;;;;8.70;4.50;;;;;;;9.71;80.26;98600.52;220069;1275;22621;-77
2022/01/02 13:38:27;;;;;;;9.00;4.90;;;;;;;9.65;80.57;98612.09;220124;1275;22969;-77
2022/01/02 13:43:45;;;;;;;;;;;;;;;;;;;;;
2022/01/02 13:50:00;;;;;;;9.30;5.00;;;;;;;9.56;80.28;98586.63;219816;1274;24741;-76
2022/01/02 13:55:18;;;;;;;9.00;6.00;;;;;;;9.54;80.58;98575.10;220184;1274;22526;-77
2022/01/02 14:00:48;;;;;;;7.70;4.40;;;;;;;9.52;80.58;98558.48;220220;1274;24258;-76
2022/01/02 14:05:59;;;;;;;7.30;4.30;;;;;;;9.52;80.81;98556.61;220107;1274;24166;-76
2022/01/02 14:11:16;;;;;;;7.40;4.30;;;;;;;9.51;80.51;98552.77;220371;1274;22629;-76
2022/01/02 14:16:43;;;;;;;6.70;4.60;;;;;;;9.52;80.61;98564.86;220346;1274;22550;-76
2022/01/02 14:22:10;;;;;;;8.30;4.80;;;;;;;9.51;80.71;98555.45;220072;1275;22680;-76
2022/01/02 14:27:32;;;;;;;11.50;6.90;;;;;;;9.50;80.92;98551.61;220242;1274;24277;-77
2022/01/02 14:32:34;;;;;;;8.70;4.90;;;;;;;9.46;81.05;98555.04;220119;1274;22628;-78
2022/01/02 14:37:45;;;;;;;7.80;4.70;;;;;;;9.42;80.84;98544.05;220097;1274;22550;-77
2022/01/02 14:43:17;;;;;;;9.40;5.50;;;;;;;9.38;81.11;98539.56;220172;1274;22609;-77
2022/01/02 14:48:23;;;;;;;10.20;5.90;;;;;;;9.31;81.11;98526.98;220259;1274;25350;-77
2022/01/02 14:53:28;;;;;;;10.70;6.00;;;;;;;9.25;81.37;98520.41;220312;1274;24258;-76
2022/01/02 14:59:23;;;;;;;13.00;6.10;;;;;;;9.20;81.69;98523.89;220066;1276;22597;-77
2022/01/02 15:04:52;;;;;;;10.50;5.90;;;;;;;9.15;81.81;98515.20;219942;1274;22946;-77
2022/01/02 15:10:29;;;;;;;11.40;5.60;;;;;;;9.10;81.87;98511.94;219971;1276;25341;-76
2022/01/02 15:16:02;;;;;;;10.10;6.20;;;;;;;9.06;81.74;98510.80;220051;1278;23498;-76
2022/01/02 15:21:16;;;;;;;10.00;6.60;;;;;;;9.05;81.82;98512.24;220259;1274;22544;-77
2022/01/02 15:27:01;;;;;;;12.60;6.40;;;;;;;9.00;81.96;98493.71;220151;1274;22561;-76
2022/01/02 15:32:35;;;;;;;18.60;8.10;;;;;;;8.97;81.94;98491.12;220214;1274;22590;-76
2022/01/02 15:37:49;;;;;;;14.80;7.40;;;;;;;8.96;81.75;98499.73;220109;1275;22567;-76
2022/01/02 15:43:43;;;;;;;17.10;9.70;;;;;;;8.93;81.86;98499.14;220074;1275;23671;-74
2022/01/02 15:49:02;;;;;;;11.90;7.70;;;;;;;8.90;81.85;98499.31;220128;1274;22560;-77
2022/01/02 15:55:07;;;;;;;;;;;;;;;;;;;;;
2022/01/02 16:01:03;;;;;;;;;;;;;;;;;;;;;
2022/01/02 16:06:32;;;;;;;;;;;;;;;;;;;;;
2022/01/02 16:11:48;;;;;;;58.30;36.80;;;;;;;8.82;82.13;98474.94;220231;1274;22737;-77
2022/01/02 16:17:28;;;;;;;11.80;7.40;;;;;;;8.89;82.45;98460.02;220291;1274;22570;-77
2022/01/02 16:22:58;;;;;;;11.70;6.40;;;;;;;8.86;82.06;98451.86;220239;1274;22566;-76
2022/01/02 16:28:50;;;;;;;;;;;;;;;;;;;;;
2022/01/02 16:35:14;;;;;;;11.20;6.50;;;;;;;8.78;81.62;98431.14;220138;1274;25385;-77
2022/01/02 16:41:20;;;;;;;12.00;6.50;;;;;;;8.76;81.66;98421.95;220175;1274;22529;-77
2022/01/02 16:53:12;;;;;;;11.10;6.20;;;;;;;8.76;81.74;98398.27;220175;1271;23952;-76
2022/01/02 16:59:02;;;;;;;;;;;;;;;;;;;;;
2022/01/02 17:12:22;;;;;;;12.80;6.50;;;;;;;8.81;81.75;98421.16;220252;1275;22486;-77
2022/01/02 17:25:29;;;;;;;10.20;5.90;;;;;;;8.83;81.36;98391.17;220243;1274;23345;-75
2022/01/02 17:31:23;;;;;;;7.90;5.50;;;;;;;8.85;81.30;98370.85;220308;1274;24283;-77
2022/01/02 17:44:05;;;;;;;6.90;5.00;;;;;;;8.86;80.39;98348.39;220058;1274;24288;-77
2022/01/02 17:50:46;;;;;;;10.60;5.80;;;;;;;8.87;80.71;98333.64;220350;1274;22970;-76
2022/01/02 17:57:20;;;;;;;;;;;;;;;;;;;;;
2022/01/02 18:03:52;;;;;;;;;;;;;;;;;;;;;
2022/01/02 18:10:43;;;;;;;;;;;;;;;;;;;;;
2022/01/02 18:23:54;;;;;;;;;;;;;;;;;;;;;
2022/01/02 18:30:27;;;;;;;7.60;5.00;;;;;;;8.84;80.41;98310.39;220764;1273;22587;-77
2022/01/02 18:37:44;;;;;;;8.20;5.20;;;;;;;8.85;80.35;98307.34;220667;1274;22708;-76
2022/01/02 18:43:48;;;;;;;9.30;6.40;;;;;;;8.82;80.61;98296.36;220611;1274;24241;-77
2022/01/02 18:48:56;;;;;;;9.80;5.80;;;;;;;8.77;80.67;98269.56;220779;1274;25657;-76
2022/01/02 18:54:34;;;;;;;9.00;6.00;;;;;;;8.70;80.47;98276.02;220681;1273;24280;-76
2022/01/02 18:59:37;;;;;;;8.90;5.60;;;;;;;8.66;80.41;98266.39;221105;1274;22821;-76
2022/01/02 19:04:47;;;;;;;7.70;5.70;;;;;;;8.61;80.57;98251.56;221472;1274;24768;-76
2022/01/02 19:09:50;;;;;;;7.70;5.20;;;;;;;8.55;80.94;98239.69;221207;1274;23886;-76
2022/01/02 19:14:52;;;;;;;12.50;7.20;;;;;;;8.51;80.85;98239.59;221014;1274;22630;-76
2022/01/02 19:20:18;;;;;;;8.90;5.50;;;;;;;8.47;81.08;98235.73;221197;1274;22589;-76
2022/01/02 19:25:30;;;;;;;8.40;5.20;;;;;;;8.46;80.95;98241.19;221363;1274;22698;-76
2022/01/02 19:30:45;;;;;;;8.90;5.30;;;;;;;8.43;80.84;98226.05;220646;1273;24232;-76
2022/01/02 19:36:47;;;;;;;9.00;5.30;;;;;;;8.39;80.73;98216.33;220695;1274;22565;-77
2022/01/02 19:42:59;;;;;;;8.50;5.30;;;;;;;8.37;80.46;98210.16;221000;1274;22493;-78
2022/01/02 19:48:12;;;;;;;9.20;5.80;;;;;;;8.40;80.35;98208.36;221499;1274;22555;-76
2022/01/02 19:53:35;;;;;;;8.20;4.40;;;;;;;8.39;80.22;98189.10;220624;1273;24291;-77
2022/01/02 19:58:41;;;;;;;7.30;4.30;;;;;;;8.31;80.09;98173.05;220841;1273;22768;-77
2022/01/02 20:03:53;;;;;;;8.20;4.80;;;;;;;8.23;80.31;98157.94;221300;1274;22658;-76
2022/01/02 20:08:55;;;;;;;8.40;5.40;;;;;;;8.16;80.28;98165.13;221372;1273;22738;-76
2022/01/02 20:14:06;;;;;;;7.50;4.90;;;;;;;8.13;80.38;98157.33;221163;1274;24252;-77
2022/01/02 20:19:09;;;;;;;8.70;5.30;;;;;;;8.12;79.95;98153.61;220616;1274;238582;-77
2022/01/02 20:24:26;;;;;;;7.20;4.80;;;;;;;8.09;80.46;98154.87;221153;1274;25435;-77
2022/01/02 20:29:29;;;;;;;10.40;5.10;;;;;;;8.03;80.35;98159.20;220882;1274;22580;-76
2022/01/02 20:34:53;;;;;;;7.70;4.90;;;;;;;8.01;80.46;98168.68;220751;1274;23085;-77
2022/01/02 20:40:35;;;;;;;8.80;5.00;;;;;;;7.99;80.42;98179.80;220640;1274;22619;-77
2022/01/02 20:52:41;;;;;;;6.40;4.20;;;;;;;7.89;80.80;98186.90;220447;1274;24324;-76
2022/01/02 20:57:47;;;;;;;7.50;4.20;;;;;;;7.89;80.74;98186.80;220315;1274;23292;-76
2022/01/02 21:03:32;;;;;;;7.70;4.30;;;;;;;7.94;80.86;98205.30;220200;1274;22554;-77
2022/01/02 21:08:36;;;;;;;7.40;4.30;;;;;;;7.96;80.49;98195.15;221260;1274;22584;-77
2022/01/02 21:13:39;;;;;;;6.30;3.90;;;;;;;7.98;80.22;98196.66;221276;1274;22620;-76
2022/01/02 21:18:41;;;;;;;9.10;4.50;;;;;;;8.04;79.73;98207.11;220967;1274;23810;-77
2022/01/02 21:23:53;;;;;;;6.00;4.20;;;;;;;8.16;79.95;98210.48;220884;1274;22662;-75
2022/01/02 21:29:04;;;;;;;5.40;3.40;;;;;;;8.25;79.57;98200.77;221194;1274;24315;-76
2022/01/02 21:34:28;;;;;;;5.50;3.60;;;;;;;8.27;79.25;98204.58;220910;1274;25423;-76
2022/01/02 21:39:31;;;;;;;7.00;4.00;;;;;;;8.26;79.21;98195.48;221004;1274;22593;-76
2022/01/02 21:44:38;;;;;;;8.30;4.80;;;;;;;8.20;79.30;98203.77;220898;1274;25478;-73
2022/01/02 21:49:42;;;;;;;7.20;3.90;;;;;;;8.11;79.15;98195.97;221044;1274;23889;-76
2022/01/02 21:54:58;;;;;;;6.60;4.20;;;;;;;8.00;79.36;98192.33;221003;1273;22823;-74
2022/01/02 22:00:00;;;;;;;7.20;4.40;;;;;;;7.88;79.41;98201.16;220947;1274;25436;-76
2022/01/02 22:05:19;;;;;;;5.90;4.10;;;;;;;7.79;79.66;98213.63;221070;1274;24264;-77
2022/01/02 22:10:27;;;;;;;8.40;4.90;;;;;;;7.75;79.92;98219.91;221054;1274;23839;-76
2022/01/02 22:15:47;;;;;;;6.30;4.00;;;;;;;7.74;80.22;98205.15;220450;1274;25386;-75
2022/01/02 22:21:10;;;;;;;6.40;4.30;;;;;;;7.67;80.13;98207.14;220543;1273;22556;-77
2022/01/02 22:26:17;;;;;;;6.20;4.50;;;;;;;7.59;80.16;98223.37;220535;1274;22571;-77
2022/01/02 22:31:22;;;;;;;5.50;4.20;;;;;;;7.55;80.29;98234.29;220523;1273;22553;-76
2022/01/02 22:36:58;;;;;;;7.00;4.60;;;;;;;7.52;80.35;98244.45;220557;1274;22576;-76
2022/01/02 22:43:07;;;;;;;6.20;4.70;;;;;;;7.51;80.49;98242.27;220543;1273;22713;-75
2022/01/02 22:56:24;;;;;;;6.10;4.00;;;;;;;7.39;80.17;98188.88;220442;1272;22580;-76
2022/01/02 23:02:17;;;;;;;7.60;4.50;;;;;;;7.34;79.96;98199.20;220521;1274;22897;-77
2022/01/02 23:07:25;;;;;;;6.60;4.00;;;;;;;7.31;79.95;98203.55;220656;1274;25590;-76
2022/01/02 23:12:40;;;;;;;8.50;5.00;;;;;;;7.27;80.18;98210.02;220517;1274;22550;-76
2022/01/02 23:18:46;;;;;;;;;;;;;;;;;;;;;
2022/01/02 23:24:53;;;;;;;9.50;5.80;;;;;;;7.29;80.19;98207.89;220351;1274;22623;-76
2022/01/02 23:31:56;;;;;;;10.40;5.40;;;;;;;7.34;80.35;98205.96;220427;1273;24722;-76
2022/01/02 23:38:30;;;;;;;10.00;5.40;;;;;;;7.34;80.30;98198.66;220264;1274;22510;-77
2022/01/02 23:44:41;;;;;;;;;;;;;;;;;;;;;
2022/01/02 23:50:53;;;;;;;9.10;6.00;;;;;;;7.26;80.36;98188.52;220262;1274;22813;-76
2022/01/02 23:56:52;;;;;;;8.40;4.80;;;;;;;7.22;80.40;98192.48;220456;1275;25899;-76
